Time;durP1;ratioP1;P1;durP2;ratioP2;P2;SDS_P1;SDS_P2;PMS_P1;PMS_P2;Temp;Humidity;BMP_temperature;BMP_pressure;BME280_temperature;BME280_humidity;BME280_pressure;Samples;Min_cycle;Max_cycle;Signal;HPM_P1;HPM_P2
2021/01/26 04:55:12;;;;;;;6.12;4.90;;;;;;;0.94;78.26;97647.41;1791969;79;21900;-63
2021/01/26 04:58:08;;;;;;;7.20;5.25;;;;;;;0.91;78.19;97668.82;1757978;81;21064;-63
2021/01/26 05:01:10;;;;;;;6.08;4.12;;;;;;;0.95;78.20;97655.48;1757905;81;21373;-63
2021/01/26 05:03:55;;;;;;;6.58;4.28;;;;;;;1.00;78.12;97653.59;1757825;81;21063;-64
2021/01/26 05:06:30;;;;;;;4.40;3.65;;;;;;;1.06;77.91;97657.25;1757923;81;21087;-63
2021/01/26 05:08:58;;;;;;;6.53;4.60;;;;;;;1.13;77.69;97656.61;1757937;81;21154;-64
2021/01/26 05:11:27;;;;;;;5.87;4.67;;;;;;;1.18;77.47;97660.70;1757925;81;21066;-62
2021/01/26 05:14:08;;;;;;;5.30;4.15;;;;;;;1.22;77.21;97666.54;1757928;81;21223;-64
2021/01/26 05:16:39;;;;;;;6.15;4.25;;;;;;;1.25;77.29;97667.72;1757842;81;21500;-63
2021/01/26 05:19:26;;;;;;;9.95;5.47;;;;;;;1.26;76.85;97664.28;1757614;81;21076;-64
2021/01/26 05:22:10;;;;;;;27.20;15.45;;;;;;;1.28;77.03;97667.19;1758079;81;21075;-64
2021/01/26 05:24:52;;;;;;;5.85;4.50;;;;;;;1.32;76.90;97666.20;1758472;81;21044;-63
2021/01/26 05:27:19;;;;;;;4.92;3.80;;;;;;;1.34;76.73;97683.64;1758143;81;21560;-64
2021/01/26 05:29:49;;;;;;;5.00;4.00;;;;;;;1.35;76.41;97676.80;1755201;81;21170;-64
2021/01/26 05:32:16;;;;;;;6.72;5.12;;;;;;;1.36;76.59;97687.43;1757872;81;21068;-64
2021/01/26 05:34:46;;;;;;;5.85;4.20;;;;;;;1.39;76.71;97698.86;1757811;81;21091;-64
2021/01/26 05:37:15;;;;;;;5.65;4.45;;;;;;;1.41;76.70;97693.66;1757904;81;21075;-64
2021/01/26 05:39:50;;;;;;;5.08;3.75;;;;;;;1.44;76.63;97706.37;1757859;81;21505;-64
2021/01/26 05:42:17;;;;;;;5.90;4.62;;;;;;;1.45;76.52;97701.20;1757916;81;21194;-64
2021/01/26 05:44:55;;;;;;;6.90;4.10;;;;;;;1.45;76.28;97711.45;1757838;81;21135;-64
2021/01/26 05:47:31;;;;;;;5.67;4.15;;;;;;;1.46;76.16;97722.09;1757947;81;21220;-64
2021/01/26 05:49:59;;;;;;;5.42;4.35;;;;;;;1.48;76.11;97724.60;1757905;81;21106;-64
2021/01/26 05:52:38;;;;;;;6.10;4.90;;;;;;;1.48;76.04;97727.16;1757859;81;23465;-64
2021/01/26 05:55:19;;;;;;;7.47;4.70;;;;;;;1.48;76.15;97729.73;1757844;80;21075;-64
2021/01/26 05:57:46;;;;;;;5.22;3.95;;;;;;;1.46;75.86;97750.27;1757926;81;21203;-64
2021/01/26 06:00:27;;;;;;;6.75;4.28;;;;;;;1.46;76.18;97763.52;1757677;81;21060;-64
2021/01/26 06:03:19;;;;;;;6.12;4.70;;;;;;;1.48;76.05;97765.59;1753290;81;21508;-64
2021/01/26 06:06:06;;;;;;;7.22;5.10;;;;;;;1.50;76.16;97774.07;1757380;81;21511;-64
2021/01/26 06:08:53;;;;;;;6.60;5.78;;;;;;;1.51;75.91;97779.59;1757331;81;21496;-64
2021/01/26 06:11:34;;;;;;;9.63;6.10;;;;;;;1.57;75.65;97783.24;1872803;76;22645;-63
2021/01/26 06:14:10;;;;;;;5.65;4.70;;;;;;;1.54;75.41;97776.48;1841480;78;21683;-63
2021/01/26 06:16:37;;;;;;;5.45;4.58;;;;;;;1.53;75.35;97782.94;1841353;78;21498;-64
2021/01/26 06:19:12;;;;;;;6.58;4.62;;;;;;;1.53;75.41;97794.47;1839861;77;21614;-63
2021/01/26 06:21:51;;;;;;;14.85;7.28;;;;;;;1.54;75.42;97801.27;1840203;78;21156;-64
2021/01/26 06:24:23;;;;;;;7.85;5.62;;;;;;;1.55;75.32;97813.20;1840788;78;21081;-63
2021/01/26 06:27:14;;;;;;;5.67;4.87;;;;;;;1.57;75.05;97810.98;1841542;77;21172;-62
2021/01/26 06:30:27;;;;;;;4.65;3.27;;;;;;;1.59;75.01;97796.41;1838711;78;20943;-63
2021/01/26 06:33:12;;;;;;;4.78;4.05;;;;;;;1.60;74.65;97813.42;1841305;77;21132;-63
2021/01/26 06:36:08;;;;;;;4.87;3.50;;;;;;;1.57;74.55;97795.61;1841119;78;21053;-64
2021/01/26 06:39:01;;;;;;;7.42;4.83;;;;;;;1.58;74.32;97809.27;1841428;78;21049;-63
2021/01/26 06:41:43;;;;;;;4.50;3.75;;;;;;;1.55;74.22;97827.30;1841384;78;26519;-64
2021/01/26 06:44:36;;;;;;;14.87;7.45;;;;;;;1.54;74.13;97831.58;1841751;78;21360;-64
2021/01/26 06:47:35;;;;;;;4.85;2.95;;;;;;;1.51;74.06;97839.36;1843294;76;21920;-63
2021/01/26 06:50:59;;;;;;;4.62;3.02;;;;;;;1.50;74.06;97843.24;1766339;79;21178;-65
2021/01/26 06:53:53;;;;;;;5.37;3.60;;;;;;;1.49;74.19;97859.50;1816447;78;21563;-66
2021/01/26 06:57:04;;;;;;;4.17;3.33;;;;;;;1.48;74.39;97870.19;1722301;83;21748;-67
2021/01/26 07:03:54;;;;;;;4.72;3.50;;;;;;;1.57;74.39;97870.36;1714431;82;21752;-65
2021/01/26 07:07:09;;;;;;;4.95;3.80;;;;;;;1.60;74.16;97877.96;1713649;82;21252;-65
2021/01/26 07:10:20;;;;;;;4.53;3.52;;;;;;;1.58;73.95;97878.00;1714895;83;21315;-65
2021/01/26 07:13:12;;;;;;;7.30;4.28;;;;;;;1.61;74.00;97883.45;1734189;80;21186;-64
2021/01/26 07:16:14;;;;;;;7.00;4.60;;;;;;;1.61;73.93;97887.30;1748131;80;21381;-66
2021/01/26 07:19:08;;;;;;;4.65;3.37;;;;;;;1.62;73.97;97900.06;1747823;80;21229;-65
2021/01/26 07:22:09;;;;;;;8.13;5.50;;;;;;;1.62;73.86;97880.00;1746770;81;21192;-68
2021/01/26 07:25:10;;;;;;;10.88;6.37;;;;;;;1.62;74.00;97894.94;1746947;82;21193;-64
2021/01/26 07:28:03;;;;;;;10.90;7.37;;;;;;;1.64;73.97;97893.61;1747125;81;21646;-67
2021/01/26 07:30:34;;;;;;;12.80;6.92;;;;;;;1.64;73.93;97912.83;1747226;82;21389;-65
2021/01/26 07:33:12;;;;;;;12.15;6.50;;;;;;;1.63;74.07;97917.12;1746831;82;21275;-67
2021/01/26 07:36:12;;;;;;;9.63;6.20;;;;;;;1.65;74.02;97927.33;1747062;80;21158;-67
2021/01/26 07:39:19;;;;;;;8.58;4.30;;;;;;;1.67;74.12;97935.81;1746842;80;21220;-69
2021/01/26 07:41:59;;;;;;;5.42;4.33;;;;;;;1.70;74.04;97936.56;1746802;80;21193;-66
2021/01/26 07:44:53;;;;;;;4.55;3.75;;;;;;;1.71;74.15;97949.77;1739227;81;21448;-63
2021/01/26 07:47:38;;;;;;;5.35;4.15;;;;;;;1.72;74.34;97947.61;1743555;82;21243;-61
2021/01/26 07:50:27;;;;;;;5.03;4.05;;;;;;;1.75;74.51;97958.66;1761828;80;21170;-64
2021/01/26 07:53:03;;;;;;;4.50;3.05;;;;;;;1.79;74.41;97953.39;1761916;81;21260;-64
2021/01/26 07:55:45;;;;;;;5.33;3.70;;;;;;;1.85;74.34;97963.88;1761467;81;21170;-65
2021/01/26 07:58:14;;;;;;;4.67;3.20;;;;;;;1.91;74.41;97966.27;1761837;81;21615;-67
2021/01/26 08:00:47;;;;;;;3.80;3.10;;;;;;;1.99;73.94;97971.56;1748747;81;21230;-66
2021/01/26 08:03:23;;;;;;;4.90;3.85;;;;;;;2.05;73.84;97973.92;1736746;81;21507;-67
2021/01/26 08:05:57;;;;;;;6.92;5.60;;;;;;;2.08;73.68;97987.09;1751736;80;21203;-65
2021/01/26 08:08:35;;;;;;;4.78;3.30;;;;;;;2.10;73.73;97990.45;1761652;80;21316;-67
2021/01/26 08:11:20;;;;;;;5.42;4.10;;;;;;;2.11;73.64;97985.72;1771427;80;21476;-66
2021/01/26 08:14:04;;;;;;;7.72;4.50;;;;;;;2.18;73.69;97994.07;1711540;81;21194;-64
2021/01/26 08:16:43;;;;;;;5.22;3.77;;;;;;;2.24;73.73;98000.27;1763028;81;21180;-65
2021/01/26 08:19:39;;;;;;;5.55;4.10;;;;;;;2.24;73.53;98010.09;1762314;80;21229;-67
2021/01/26 08:22:47;;;;;;;6.10;4.17;;;;;;;2.26;73.56;98019.02;1765433;80;21190;-64
2021/01/26 08:25:39;;;;;;;5.67;3.87;;;;;;;2.29;73.49;98019.77;1671960;79;21274;-66
2021/01/26 08:28:32;;;;;;;5.12;3.52;;;;;;;2.36;73.46;98017.42;1785252;79;21649;-65
2021/01/26 08:31:03;;;;;;;5.30;3.92;;;;;;;2.45;73.11;98025.69;1763830;81;21157;-66
2021/01/26 08:33:32;;;;;;;5.25;4.08;;;;;;;2.55;72.73;98025.81;1796543;79;21175;-64
2021/01/26 08:36:14;;;;;;;6.25;4.00;;;;;;;2.65;72.37;98037.44;1781631;79;21188;-66
2021/01/26 08:39:03;;;;;;;7.00;5.05;;;;;;;2.72;71.96;98032.52;1790653;79;21930;-65
2021/01/26 08:41:48;;;;;;;8.40;6.17;;;;;;;2.75;71.97;98042.69;1795671;79;21221;-66
2021/01/26 08:45:01;;;;;;;11.35;8.25;;;;;;;2.77;71.59;98047.33;1794850;79;21178;-66
2021/01/26 08:48:17;;;;;;;6.80;5.15;;;;;;;2.76;71.60;98047.77;1742435;81;21184;-65
2021/01/26 08:51:03;;;;;;;9.68;6.37;;;;;;;2.78;71.79;98054.14;1751222;79;21494;-66
2021/01/26 08:53:36;;;;;;;5.83;4.20;;;;;;;2.82;71.88;98059.55;1738506;81;21204;-66
2021/01/26 08:56:27;;;;;;;5.55;3.62;;;;;;;2.86;71.56;98060.30;1736372;82;21181;-65
2021/01/26 08:59:15;;;;;;;5.63;3.87;;;;;;;2.85;71.42;98063.75;1776668;79;21283;-64
2021/01/26 09:01:59;;;;;;;3.67;3.22;;;;;;;2.81;71.22;98052.73;1735296;79;21166;-65
2021/01/26 09:04:35;;;;;;;5.62;4.40;;;;;;;2.79;71.15;98067.82;1766674;80;21104;-65
2021/01/26 09:07:04;;;;;;;7.15;3.95;;;;;;;2.77;71.51;98064.02;1766584;81;21854;-65
2021/01/26 09:09:40;;;;;;;5.35;3.35;;;;;;;2.80;71.47;98062.61;1752179;81;21132;-63
2021/01/26 09:12:08;;;;;;;6.78;4.58;;;;;;;2.79;71.19;98059.67;1760130;80;21055;-65
2021/01/26 09:14:47;;;;;;;5.75;4.00;;;;;;;2.80;71.39;98072.06;1758557;80;21048;-65
2021/01/26 09:17:29;;;;;;;5.45;3.35;;;;;;;2.85;71.30;98068.88;1739534;81;21152;-65
2021/01/26 09:20:16;;;;;;;8.45;3.60;;;;;;;2.88;70.99;98067.05;1758647;80;21206;-64
2021/01/26 09:22:44;;;;;;;5.97;3.98;;;;;;;2.92;71.24;98085.78;1758316;81;21229;-65
2021/01/26 09:25:23;;;;;;;7.05;4.40;;;;;;;3.03;70.92;98087.09;1758671;80;21115;-64
2021/01/26 09:28:04;;;;;;;10.15;4.60;;;;;;;3.15;70.67;98086.30;1757830;81;21178;-64
2021/01/26 09:30:33;;;;;;;20.00;4.12;;;;;;;3.21;70.12;98091.21;1758720;81;21091;-65
2021/01/26 09:33:21;;;;;;;9.00;4.33;;;;;;;3.23;70.06;98083.01;1757415;80;21520;-66
2021/01/26 09:35:54;;;;;;;5.87;4.08;;;;;;;3.24;69.83;98086.81;1737284;82;21338;-64
2021/01/26 09:38:46;;;;;;;9.98;3.90;;;;;;;3.24;69.51;98093.68;1739350;82;21203;-66
2021/01/26 09:41:27;;;;;;;9.18;3.83;;;;;;;3.28;69.50;98103.81;1739953;82;21123;-64
2021/01/26 09:44:18;;;;;;;9.30;3.83;;;;;;;3.33;69.49;98101.09;1739626;82;21624;-65
2021/01/26 09:46:56;;;;;;;10.63;3.80;;;;;;;3.39;69.14;98117.16;1748603;81;21285;-65
2021/01/26 09:49:35;;;;;;;12.47;3.77;;;;;;;3.41;68.73;98112.77;1751275;81;21214;-65
2021/01/26 09:52:11;;;;;;;21.00;5.58;;;;;;;3.37;68.45;98114.23;1726521;81;21191;-64
2021/01/26 09:54:42;;;;;;;6.40;4.87;;;;;;;3.29;68.83;98117.50;1750273;81;21155;-64
2021/01/26 09:57:16;;;;;;;12.28;5.92;;;;;;;3.29;68.74;98127.78;1751937;81;21316;-64
2021/01/26 09:59:50;;;;;;;29.07;7.65;;;;;;;3.26;68.45;98124.86;1751963;81;21207;-65
2021/01/26 10:02:18;;;;;;;13.62;5.75;;;;;;;3.18;68.71;98129.88;1724363;81;21195;-64
2021/01/26 10:04:46;;;;;;;7.62;3.40;;;;;;;3.13;69.10;98139.02;1751451;81;21190;-65
2021/01/26 10:07:17;;;;;;;22.50;5.60;;;;;;;3.07;68.61;98127.65;1752114;81;21556;-64
2021/01/26 10:09:45;;;;;;;9.38;4.30;;;;;;;3.01;68.89;98141.97;1726793;81;21059;-64
2021/01/26 10:12:40;;;;;;;12.50;5.25;;;;;;;2.94;69.11;98145.19;1755364;81;22282;-65
2021/01/26 10:18:28;;;;;;;14.68;3.90;;;;;;;2.90;69.15;98137.62;1889928;75;22651;-64
2021/01/26 10:20:59;;;;;;;9.73;4.08;;;;;;;2.85;69.34;98149.77;1860165;77;22066;-65
2021/01/26 10:23:40;;;;;;;9.88;3.37;;;;;;;2.82;69.69;98151.98;1860680;77;21364;-63
2021/01/26 10:26:30;;;;;;;11.22;4.17;;;;;;;2.83;69.42;98153.66;1860823;77;21067;-64
2021/01/26 10:29:11;;;;;;;8.00;3.98;;;;;;;2.83;69.48;98156.23;1860826;77;20923;-63
2021/01/26 10:31:50;;;;;;;9.05;4.60;;;;;;;2.86;69.54;98163.84;1860899;77;21536;-64
2021/01/26 10:34:34;;;;;;;5.08;3.80;;;;;;;2.88;69.57;98161.23;1836856;77;21148;-64
2021/01/26 10:37:27;;;;;;;21.42;4.12;;;;;;;2.88;69.41;98168.49;1827122;78;22230;-64
2021/01/26 10:40:24;;;;;;;4.65;2.83;;;;;;;2.90;69.40;98171.02;1827182;78;21100;-65
2021/01/26 10:43:05;;;;;;;7.78;4.17;;;;;;;2.86;68.97;98165.57;1825869;78;21144;-64
2021/01/26 10:45:40;;;;;;;15.48;6.08;;;;;;;2.78;68.69;98179.11;1827144;77;21086;-64
2021/01/26 10:48:26;;;;;;;7.80;4.65;;;;;;;2.75;69.12;98173.63;1826874;78;21062;-64
2021/01/26 10:50:56;;;;;;;13.48;4.65;;;;;;;2.78;69.50;98176.55;1826564;78;21459;-64
2021/01/26 10:53:34;;;;;;;4.62;3.42;;;;;;;2.81;69.12;98169.56;1829543;77;21279;-65
2021/01/26 10:56:04;;;;;;;10.38;4.20;;;;;;;2.82;68.97;98176.38;1846920;77;21077;-63
2021/01/26 10:58:32;;;;;;;8.05;3.90;;;;;;;2.80;68.99;98173.48;1847019;77;21549;-64
2021/01/26 11:01:00;;;;;;;10.75;4.35;;;;;;;2.77;69.07;98175.70;1846819;77;21192;-64
2021/01/26 11:03:28;;;;;;;18.70;4.62;;;;;;;2.75;68.83;98183.89;1846928;77;21190;-65
2021/01/26 11:05:56;;;;;;;8.95;3.62;;;;;;;2.72;68.81;98179.69;1846845;77;21070;-65
2021/01/26 11:08:24;;;;;;;6.78;4.12;;;;;;;2.68;68.85;98183.67;1846909;77;21061;-64
2021/01/26 11:10:52;;;;;;;7.35;3.98;;;;;;;2.71;68.82;98183.58;1846896;77;21587;-64
2021/01/26 11:13:20;;;;;;;12.73;6.53;;;;;;;2.72;68.90;98180.13;1847001;77;21165;-64
2021/01/26 11:15:48;;;;;;;6.75;4.47;;;;;;;2.75;69.02;98182.16;1849195;76;21360;-64
2021/01/26 11:18:16;;;;;;;8.00;4.05;;;;;;;2.78;68.98;98174.81;1860040;76;21174;-62
2021/01/26 11:20:48;;;;;;;10.27;3.70;;;;;;;2.83;68.55;98177.22;1859741;76;21175;-63
2021/01/26 11:23:16;;;;;;;9.53;4.42;;;;;;;2.84;68.04;98178.90;1805762;79;21159;-63
2021/01/26 11:25:45;;;;;;;10.95;4.40;;;;;;;2.82;68.08;98182.80;1789826;80;21146;-61
2021/01/26 11:28:13;;;;;;;4.83;3.77;;;;;;;2.82;67.79;98181.95;1789712;78;21361;-62
2021/01/26 11:30:41;;;;;;;19.87;4.58;;;;;;;2.85;67.95;98197.27;1788924;78;21189;-66
2021/01/26 11:33:10;;;;;;;9.65;4.42;;;;;;;2.87;67.55;98178.81;1804513;78;21186;-63
2021/01/26 11:35:39;;;;;;;9.35;4.55;;;;;;;2.89;67.45;98184.73;1821618;78;21182;-65
2021/01/26 11:38:09;;;;;;;5.67;3.42;;;;;;;2.89;67.88;98189.88;1794508;78;21171;-61
2021/01/26 11:40:37;;;;;;;3.72;2.85;;;;;;;2.90;67.09;98191.11;1789566;80;21496;-63
2021/01/26 11:43:05;;;;;;;5.58;3.20;;;;;;;2.90;67.33;98194.97;1789156;80;21098;-64
2021/01/26 11:45:38;;;;;;;5.62;4.00;;;;;;;2.93;67.13;98201.74;1789625;80;21118;-65
2021/01/26 11:48:07;;;;;;;;;;;;;;;2.94;67.27;98200.41;1790964;80;21705;-61
2021/01/26 11:50:38;;;;;;;4.37;3.17;;;;;;;2.98;67.02;98212.72;1820964;78;20296;-63
2021/01/26 11:53:08;;;;;;;7.05;4.20;;;;;;;3.00;66.74;98208.34;1821922;78;21469;-63
2021/01/26 11:55:36;;;;;;;12.33;3.92;;;;;;;3.03;66.85;98199.27;1822036;78;21056;-63
2021/01/26 11:58:04;;;;;;;8.80;5.28;;;;;;;3.03;66.52;98211.67;1821849;78;21076;-62
2021/01/26 12:00:33;;;;;;;13.55;7.97;;;;;;;3.04;66.65;98221.50;1821808;78;21174;-65
2021/01/26 12:03:05;;;;;;;5.80;4.50;;;;;;;3.06;66.92;98226.14;1821448;78;21131;-64
2021/01/26 12:05:36;;;;;;;10.13;4.62;;;;;;;3.08;66.46;98225.66;1822027;78;21376;-62
2021/01/26 12:08:06;;;;;;;8.55;4.12;;;;;;;3.11;66.32;98216.58;1821902;78;21056;-62
2021/01/26 12:10:34;;;;;;;7.80;3.87;;;;;;;3.16;65.91;98226.71;1821912;78;21098;-61
2021/01/26 12:13:03;;;;;;;20.00;4.55;;;;;;;3.19;66.17;98222.33;1821903;78;21119;-63
2021/01/26 12:15:34;;;;;;;7.00;3.98;;;;;;;3.25;66.18;98227.25;1822138;78;21535;-64
2021/01/26 12:18:05;;;;;;;8.10;4.58;;;;;;;3.29;65.82;98240.40;1824221;78;26082;-64
2021/01/26 12:20:33;;;;;;;6.05;3.35;;;;;;;3.33;65.48;98243.27;1824991;78;21141;-63
2021/01/26 12:23:02;;;;;;;10.28;4.37;;;;;;;3.36;65.50;98244.91;1825034;78;21133;-64
2021/01/26 12:25:31;;;;;;;8.93;3.95;;;;;;;3.36;65.05;98252.17;1825124;78;21143;-64
2021/01/26 12:28:03;;;;;;;7.20;4.30;;;;;;;3.33;64.98;98249.70;1825209;78;21111;-63
2021/01/26 12:30:31;;;;;;;7.70;4.30;;;;;;;3.32;64.77;98244.16;1825247;78;21374;-64
2021/01/26 12:33:00;;;;;;;8.80;3.98;;;;;;;3.27;64.65;98246.03;1825091;78;21142;-63
2021/01/26 12:35:35;;;;;;;6.30;4.80;;;;;;;3.23;64.84;98248.73;1825089;78;21067;-63
2021/01/26 12:38:05;;;;;;;9.53;3.70;;;;;;;3.24;64.90;98240.98;1825132;78;21546;-63
2021/01/26 12:40:33;;;;;;;9.00;4.45;;;;;;;3.24;64.93;98235.00;1825326;78;21536;-64
2021/01/26 12:43:01;;;;;;;6.95;4.25;;;;;;;3.22;65.21;98244.04;1825228;78;21378;-64
2021/01/26 12:45:30;;;;;;;6.03;4.03;;;;;;;3.24;65.09;98249.97;1825149;78;21067;-64
2021/01/26 12:48:00;;;;;;;15.30;5.83;;;;;;;3.24;64.61;98246.13;1825248;78;21631;-64
2021/01/26 12:50:34;;;;;;;5.87;4.12;;;;;;;3.19;65.06;98247.17;1825349;78;21052;-65
2021/01/26 12:53:14;;;;;;;6.00;4.42;;;;;;;3.16;65.14;98261.39;1825284;78;21548;-62
2021/01/26 12:55:42;;;;;;;6.92;3.95;;;;;;;3.05;64.87;98253.56;1825191;78;21265;-62
2021/01/26 12:58:10;;;;;;;22.07;5.60;;;;;;;2.95;64.90;98266.74;1825307;78;21135;-64
2021/01/26 13:00:39;;;;;;;6.42;4.40;;;;;;;2.86;65.36;98277.27;1825053;78;21067;-65
2021/01/26 13:03:08;;;;;;;7.97;4.85;;;;;;;2.77;65.64;98271.98;1825128;78;21080;-64
2021/01/26 13:05:37;;;;;;;6.85;4.28;;;;;;;2.70;65.83;98275.60;1825180;78;21064;-66
2021/01/26 13:08:05;;;;;;;7.40;5.08;;;;;;;2.62;65.97;98288.64;1825136;78;21199;-64
2021/01/26 13:10:34;;;;;;;11.88;4.85;;;;;;;2.57;66.43;98300.80;1825077;78;21630;-64
2021/01/26 13:13:02;;;;;;;6.87;4.50;;;;;;;2.55;66.53;98303.84;1824832;78;21120;-67
2021/01/26 13:15:30;;;;;;;8.25;6.42;;;;;;;2.54;66.66;98309.86;1825164;78;21091;-64
2021/01/26 13:17:58;;;;;;;6.50;5.22;;;;;;;2.54;66.64;98303.44;1824823;78;21145;-64
2021/01/26 13:20:27;;;;;;;8.33;5.08;;;;;;;2.56;66.23;98311.95;1825190;78;21486;-64
2021/01/26 13:22:58;;;;;;;7.25;4.65;;;;;;;2.60;65.92;98300.68;1825103;78;21075;-63
2021/01/26 13:25:27;;;;;;;10.80;5.92;;;;;;;2.65;65.84;98305.25;1814921;78;21063;-65
2021/01/26 13:27:56;;;;;;;9.93;4.70;;;;;;;2.66;65.82;98304.37;1792713;80;21571;-68
2021/01/26 13:30:27;;;;;;;8.88;4.70;;;;;;;2.63;65.48;98300.59;1792556;80;21055;-64
2021/01/26 13:32:55;;;;;;;7.87;4.50;;;;;;;2.61;64.99;98313.91;1792534;79;21375;-63
2021/01/26 13:35:27;;;;;;;8.08;4.67;;;;;;;2.58;65.30;98314.47;1792598;80;21128;-66
2021/01/26 13:37:55;;;;;;;8.95;5.03;;;;;;;2.58;65.49;98323.02;1792728;80;21083;-63
2021/01/26 13:40:23;;;;;;;9.33;5.05;;;;;;;2.61;65.68;98328.03;1792511;80;21215;-63
2021/01/26 13:42:52;;;;;;;9.13;5.20;;;;;;;2.60;65.30;98323.78;1792684;80;21880;-65
2021/01/26 13:45:22;;;;;;;8.03;5.40;;;;;;;2.60;65.44;98328.11;1792788;80;22324;-64
2021/01/26 13:47:50;;;;;;;10.78;5.30;;;;;;;2.62;65.33;98333.57;1792689;80;21196;-65
2021/01/26 13:50:19;;;;;;;13.35;6.35;;;;;;;2.62;65.39;98330.16;1792521;80;21127;-64
2021/01/26 13:52:47;;;;;;;13.32;6.05;;;;;;;2.60;65.11;98341.75;1792715;79;21595;-64
2021/01/26 13:55:15;;;;;;;17.57;5.92;;;;;;;2.55;64.87;98347.48;1792600;80;21063;-62
2021/01/26 13:57:45;;;;;;;11.00;7.10;;;;;;;2.49;65.16;98354.05;1792648;80;21263;-62
2021/01/26 14:00:18;;;;;;;14.33;8.78;;;;;;;2.44;65.34;98357.17;1792541;78;21544;-63
2021/01/26 14:02:57;;;;;;;12.15;6.72;;;;;;;2.42;65.70;98358.49;1792513;79;21075;-65
2021/01/26 14:05:22;;;;;;;;;;;;;;;2.38;65.49;98364.61;1791769;78;21747;-65
2021/01/26 14:07:49;;;;;;;13.78;4.10;;;;;;;2.33;65.06;98360.03;1788105;80;20297;-64
2021/01/26 14:10:17;;;;;;;10.10;4.87;;;;;;;2.27;64.74;98371.73;1791473;80;21341;-64
2021/01/26 14:12:46;;;;;;;8.60;5.17;;;;;;;2.23;64.82;98375.25;1792513;80;21095;-63
2021/01/26 14:15:15;;;;;;;10.72;4.28;;;;;;;2.18;65.21;98367.29;1792255;80;21197;-65
2021/01/26 14:17:42;;;;;;;10.80;4.72;;;;;;;2.12;64.88;98369.56;1790950;80;21559;-65
2021/01/26 14:20:13;;;;;;;8.20;4.83;;;;;;;2.07;65.18;98373.52;1787730;80;21150;-63
2021/01/26 14:22:48;;;;;;;10.43;5.65;;;;;;;2.06;65.49;98370.98;1765644;79;21198;-62
2021/01/26 14:25:19;;;;;;;5.90;4.80;;;;;;;2.06;65.57;98379.96;1787880;80;21131;-63
2021/01/26 14:27:48;;;;;;;8.38;4.92;;;;;;;2.03;65.25;98386.00;1787667;80;21076;-62
2021/01/26 14:30:21;;;;;;;11.38;5.70;;;;;;;1.96;65.22;98383.20;1787386;80;21190;-62
2021/01/26 14:32:50;;;;;;;18.62;5.58;;;;;;;1.92;65.16;98389.28;1786500;80;21127;-63
2021/01/26 14:35:21;;;;;;;21.82;6.12;;;;;;;1.88;65.16;98394.52;1785297;80;21908;-62
2021/01/26 14:37:49;;;;;;;9.98;5.45;;;;;;;1.83;65.27;98391.20;1783476;80;21762;-63
2021/01/26 14:40:19;;;;;;;11.95;7.05;;;;;;;1.79;65.49;98393.47;1789281;80;21055;-62
2021/01/26 14:42:48;;;;;;;10.85;6.20;;;;;;;1.76;65.68;98394.38;1787679;80;21159;-61
2021/01/26 14:45:17;;;;;;;19.10;6.55;;;;;;;1.70;65.83;98388.95;1787475;80;21040;-63
2021/01/26 14:47:45;;;;;;;11.97;5.25;;;;;;;1.68;66.03;98388.58;1787864;80;21376;-64
2021/01/26 14:50:17;;;;;;;8.75;4.92;;;;;;;1.67;66.19;98398.42;1791875;78;21168;-63
2021/01/26 14:52:45;;;;;;;5.33;4.35;;;;;;;1.64;66.36;98391.64;1800483;78;21065;-66
2021/01/26 14:55:18;;;;;;;11.68;4.87;;;;;;;1.62;66.30;98401.08;1787818;80;21539;-67
2021/01/26 14:57:46;;;;;;;15.93;6.15;;;;;;;1.60;66.37;98403.30;1787306;80;21099;-65
2021/01/26 15:00:20;;;;;;;14.28;7.55;;;;;;;1.56;66.72;98410.64;1764540;81;21129;-65
2021/01/26 15:02:49;;;;;;;10.65;6.30;;;;;;;1.54;66.92;98415.80;1778224;80;21521;-67
2021/01/26 15:05:19;;;;;;;16.17;5.30;;;;;;;1.54;66.78;98426.49;1764295;81;21089;-64
2021/01/26 15:07:50;;;;;;;7.95;5.60;;;;;;;1.53;66.25;98434.62;1781265;80;21155;-63
2021/01/26 15:10:23;;;;;;;4.95;3.67;;;;;;;1.53;66.42;98434.62;1796219;79;21570;-64
2021/01/26 15:12:52;;;;;;;6.03;4.78;;;;;;;1.53;66.01;98437.62;1804379;79;21194;-64
2021/01/26 15:15:26;;;;;;;9.23;6.45;;;;;;;1.50;66.08;98437.23;1804276;79;21127;-63
2021/01/26 15:17:55;;;;;;;;;;;;;;;1.52;66.40;98442.34;1804200;79;21117;-64
2021/01/26 15:20:27;;;;;;;10.35;5.62;;;;;;;1.53;66.40;98442.30;1792312;79;20213;-64
2021/01/26 15:22:58;;;;;;;7.08;5.40;;;;;;;1.52;66.42;98448.74;1792275;79;21059;-63
2021/01/26 15:25:26;;;;;;;10.15;7.17;;;;;;;1.50;66.61;98446.20;1791700;80;22202;-62
2021/01/26 15:27:55;;;;;;;11.78;7.37;;;;;;;1.50;66.74;98453.90;1792279;80;21069;-63
2021/01/26 15:30:29;;;;;;;7.65;6.00;;;;;;;1.49;66.84;98458.61;1792374;79;21060;-64
2021/01/26 15:32:57;;;;;;;11.10;6.10;;;;;;;1.47;66.54;98462.08;1792410;80;21603;-63
2021/01/26 15:35:27;;;;;;;12.25;6.45;;;;;;;1.45;66.79;98468.52;1792393;80;21219;-63
2021/01/26 15:37:58;;;;;;;8.38;5.72;;;;;;;1.47;66.87;98477.45;1792264;79;21552;-67
2021/01/26 15:40:28;;;;;;;10.15;6.25;;;;;;;1.47;66.80;98477.45;1792356;80;21100;-63
2021/01/26 15:42:56;;;;;;;9.93;6.90;;;;;;;1.48;66.32;98485.11;1792242;80;21461;-62
2021/01/26 15:45:24;;;;;;;13.10;6.70;;;;;;;1.47;66.05;98478.30;1791474;80;21059;-62
2021/01/26 15:47:52;;;;;;;15.48;8.25;;;;;;;1.49;65.78;98487.23;1792441;80;21136;-61
2021/01/26 15:50:22;;;;;;;11.73;7.35;;;;;;;1.49;65.88;98489.36;1792384;80;23592;-62
2021/01/26 15:52:49;;;;;;;10.43;6.50;;;;;;;1.50;65.90;98497.89;1792289;80;21083;-62
2021/01/26 15:55:18;;;;;;;17.17;6.10;;;;;;;1.48;66.11;98503.05;1792273;80;21048;-61
2021/01/26 15:57:46;;;;;;;9.85;6.60;;;;;;;1.47;65.83;98509.05;1792351;80;21194;-65
2021/01/26 16:00:17;;;;;;;22.62;7.42;;;;;;;1.47;66.04;98509.48;1792376;80;21466;-62
2021/01/26 16:02:44;;;;;;;10.35;6.60;;;;;;;1.47;66.19;98514.17;1792345;80;21293;-64
2021/01/26 16:05:13;;;;;;;13.95;7.87;;;;;;;1.50;66.28;98519.67;1792229;80;21136;-64
2021/01/26 16:07:40;;;;;;;25.17;8.20;;;;;;;1.49;66.40;98520.55;1791577;80;21185;-64
2021/01/26 16:10:10;;;;;;;14.93;7.72;;;;;;;1.46;66.55;98516.33;1792238;80;21055;-64
2021/01/26 16:12:39;;;;;;;10.15;7.08;;;;;;;1.44;66.49;98514.23;1792340;79;21041;-63
2021/01/26 16:15:11;;;;;;;10.08;5.42;;;;;;;1.39;66.64;98521.19;1792273;80;21365;-64
2021/01/26 16:17:38;;;;;;;7.05;5.33;;;;;;;1.37;66.43;98521.21;1792244;80;21057;-64
2021/01/26 16:20:08;;;;;;;9.28;7.15;;;;;;;1.35;66.15;98526.80;1792240;79;21083;-62
2021/01/26 16:22:36;;;;;;;9.53;6.10;;;;;;;1.33;66.29;98530.27;1792246;79;21072;-64
2021/01/26 16:25:06;;;;;;;11.55;7.33;;;;;;;1.32;66.23;98530.70;1792304;80;21127;-63
2021/01/26 16:27:34;;;;;;;14.60;8.65;;;;;;;1.28;66.39;98523.94;1792308;80;21382;-63
2021/01/26 16:30:03;;;;;;;20.88;11.70;;;;;;;1.28;66.71;98530.78;1792326;79;21568;-64
2021/01/26 16:32:30;;;;;;;13.70;9.73;;;;;;;1.28;66.93;98539.31;1792351;80;21135;-64
2021/01/26 16:34:59;;;;;;;16.42;10.35;;;;;;;1.29;66.78;98541.44;1792284;79;21114;-62
2021/01/26 16:37:28;;;;;;;16.82;10.98;;;;;;;1.28;66.81;98534.62;1792261;80;21124;-63
2021/01/26 16:40:02;;;;;;;13.08;9.50;;;;;;;1.27;66.84;98532.94;1792306;80;21149;-61
2021/01/26 16:42:30;;;;;;;10.35;7.22;;;;;;;1.24;67.08;98536.83;1792266;80;21174;-62
2021/01/26 16:44:57;;;;;;;11.73;7.67;;;;;;;1.28;67.20;98539.31;1792363;79;21489;-62
2021/01/26 16:47:25;;;;;;;11.75;8.28;;;;;;;1.31;67.29;98532.00;1792269;80;21060;-63
2021/01/26 16:49:54;;;;;;;15.70;10.30;;;;;;;1.31;66.97;98532.85;1789711;80;21136;-64
2021/01/26 16:52:22;;;;;;;21.75;9.45;;;;;;;1.29;66.94;98538.44;1795169;79;21277;-63
2021/01/26 16:54:50;;;;;;;13.93;10.20;;;;;;;1.27;67.13;98546.59;1794964;80;21171;-62
2021/01/26 16:57:18;;;;;;;20.77;12.50;;;;;;;1.28;67.15;98542.30;1795046;79;21053;-62
2021/01/26 16:59:46;;;;;;;16.07;10.08;;;;;;;1.28;67.26;98543.16;1795179;80;21461;-63
2021/01/26 17:02:14;;;;;;;9.65;6.90;;;;;;;1.32;67.33;98551.63;1795070;80;21127;-63
2021/01/26 17:04:44;;;;;;;8.65;6.15;;;;;;;1.35;67.05;98555.42;1793736;79;21378;-64
2021/01/26 17:07:11;;;;;;;7.03;5.65;;;;;;;1.36;66.98;98560.95;1794990;80;21548;-63
2021/01/26 17:09:39;;;;;;;8.10;6.12;;;;;;;1.38;66.70;98557.48;1795071;80;21044;-61
2021/01/26 17:12:08;;;;;;;10.40;6.70;;;;;;;1.40;66.60;98568.15;1795078;79;21056;-64
2021/01/26 17:14:38;;;;;;;9.03;5.78;;;;;;;1.38;66.32;98569.02;1795184;80;21480;-65
2021/01/26 17:17:05;;;;;;;9.73;6.17;;;;;;;1.37;66.33;98567.33;1795101;80;21616;-64
2021/01/26 17:19:34;;;;;;;10.23;6.40;;;;;;;1.37;66.52;98560.92;1810590;78;21559;-63